createdAt,value
2017-03-22T00:00:00.218Z,0
2017-03-22T00:00:40.801Z,0
2017-03-22T00:01:21.388Z,0
2017-03-22T00:02:01.976Z,0
2017-03-22T00:02:42.563Z,0
2017-03-22T00:03:23.134Z,0
2017-03-22T00:04:03.705Z,0
2017-03-22T00:04:44.290Z,0
2017-03-22T00:05:24.874Z,0
2017-03-22T00:06:05.455Z,0
2017-03-22T00:06:46.044Z,0
2017-03-22T00:07:26.614Z,0
2017-03-22T00:08:07.194Z,0
2017-03-22T00:08:47.765Z,0
2017-03-22T00:09:28.347Z,0
2017-03-22T00:10:08.929Z,0
2017-03-22T00:12:47.234Z,0
2017-03-22T00:13:27.812Z,0
2017-03-22T00:14:08.393Z,0
2017-03-22T00:14:48.974Z,0
2017-03-22T00:15:29.555Z,0
2017-03-22T00:16:10.137Z,0
2017-03-22T00:16:50.727Z,0
2017-03-22T00:17:31.307Z,0
2017-03-22T00:18:11.890Z,0
2017-03-22T00:18:52.468Z,0
2017-03-22T00:19:33.047Z,0
2017-03-22T00:20:13.626Z,0
2017-03-22T00:20:54.214Z,0
2017-03-22T00:21:34.786Z,0
2017-03-22T00:22:15.367Z,0
2017-03-22T00:22:55.951Z,0
2017-03-22T00:23:36.534Z,0
2017-03-22T00:24:17.114Z,0
2017-03-22T00:24:57.687Z,0
2017-03-22T00:25:38.277Z,0
2017-03-22T00:27:56.219Z,0
2017-03-22T00:28:36.800Z,0
2017-03-22T00:29:17.381Z,0
2017-03-22T00:29:57.966Z,0
2017-03-22T00:30:38.550Z,0
2017-03-22T00:31:19.129Z,0
2017-03-22T00:31:59.699Z,0
2017-03-22T00:32:40.281Z,0
2017-03-22T00:33:20.867Z,0
2017-03-22T00:34:01.440Z,0
2017-03-22T00:34:42.024Z,0
2017-03-22T00:35:22.605Z,0
2017-03-22T00:36:03.181Z,0
2017-03-22T00:36:43.759Z,0
2017-03-22T00:37:24.351Z,0
2017-03-22T00:38:04.919Z,0
2017-03-22T00:38:45.505Z,0
2017-03-22T00:39:26.078Z,0
2017-03-22T00:40:06.654Z,0
2017-03-22T00:40:47.230Z,0
2017-03-22T00:41:27.804Z,0
2017-03-22T00:42:08.386Z,0
2017-03-22T00:44:33.823Z,0
2017-03-22T00:45:14.400Z,0
2017-03-22T00:45:54.974Z,0
2017-03-22T00:46:35.554Z,0
2017-03-22T00:47:16.136Z,0
2017-03-22T00:47:56.721Z,0
2017-03-22T00:48:37.288Z,0
2017-03-22T00:49:17.875Z,0
2017-03-22T00:49:58.454Z,0
2017-03-22T00:50:39.030Z,0
2017-03-22T00:51:19.616Z,0
2017-03-22T00:52:00.196Z,0
2017-03-22T00:52:40.776Z,0
2017-03-22T00:53:21.349Z,0
2017-03-22T00:54:01.925Z,0
2017-03-22T00:54:42.500Z,0
2017-03-22T00:55:23.081Z,0
2017-03-22T00:56:03.664Z,0
2017-03-22T00:56:44.251Z,0
2017-03-22T00:57:24.830Z,0
2017-03-22T00:58:05.408Z,0
2017-03-22T00:58:45.982Z,0
2017-03-22T00:59:26.572Z,0
2017-03-22T01:00:07.152Z,0
2017-03-22T01:00:47.735Z,0
2017-03-22T01:01:28.316Z,0
2017-03-22T01:02:08.899Z,0
2017-03-22T01:02:49.470Z,0
2017-03-22T01:03:30.052Z,0
2017-03-22T01:06:03.237Z,0
2017-03-22T01:06:43.805Z,0
2017-03-22T01:07:24.406Z,0
2017-03-22T01:08:04.983Z,0
2017-03-22T01:08:45.566Z,0
2017-03-22T01:09:26.142Z,0
2017-03-22T01:10:06.722Z,0
2017-03-22T01:10:47.304Z,0
2017-03-22T01:11:27.883Z,0
2017-03-22T01:12:08.466Z,0
2017-03-22T01:12:49.046Z,0
2017-03-22T01:13:29.627Z,0
2017-03-22T01:14:10.214Z,0
2017-03-22T01:14:50.798Z,0
2017-03-22T01:15:31.375Z,0
2017-03-22T01:16:11.984Z,0
2017-03-22T01:16:52.516Z,0
2017-03-22T01:17:33.091Z,0
2017-03-22T01:18:13.667Z,0
2017-03-22T01:18:54.247Z,0
2017-03-22T01:19:34.810Z,0
2017-03-22T01:20:15.394Z,0
2017-03-22T01:20:55.980Z,0
2017-03-22T01:21:36.560Z,0
2017-03-22T01:22:17.124Z,0
2017-03-22T01:22:57.711Z,0
2017-03-22T01:23:38.294Z,0
2017-03-22T01:24:18.880Z,0
2017-03-22T01:24:59.457Z,0
2017-03-22T01:25:40.033Z,0
2017-03-22T01:26:20.611Z,0
2017-03-22T01:27:01.186Z,0
2017-03-22T01:27:41.775Z,0
2017-03-22T01:28:22.353Z,0
2017-03-22T01:29:02.930Z,0
2017-03-22T01:29:43.511Z,0
2017-03-22T01:30:24.097Z,0
2017-03-22T01:31:04.680Z,0
2017-03-22T01:31:45.260Z,0
2017-03-22T01:32:25.846Z,0
2017-03-22T01:33:06.426Z,0
2017-03-22T01:33:46.996Z,0
2017-03-22T01:34:27.583Z,0
2017-03-22T01:35:08.158Z,0
2017-03-22T01:35:48.734Z,0
2017-03-22T01:36:29.315Z,0
2017-03-22T01:37:09.900Z,0
2017-03-22T01:37:50.475Z,0
2017-03-22T01:38:31.051Z,0
2017-03-22T01:39:11.637Z,0
2017-03-22T01:39:52.211Z,0
2017-03-22T01:40:32.794Z,0
2017-03-22T01:41:13.373Z,0
2017-03-22T01:41:53.956Z,0
2017-03-22T01:42:34.540Z,0
2017-03-22T01:43:15.120Z,0
2017-03-22T01:43:55.752Z,0
2017-03-22T01:44:36.324Z,0
2017-03-22T01:45:16.903Z,0
2017-03-22T01:45:57.488Z,0
2017-03-22T01:46:38.067Z,0
2017-03-22T01:47:18.650Z,0
2017-03-22T01:47:59.231Z,0
2017-03-22T01:48:39.820Z,0
2017-03-22T01:49:20.395Z,0
2017-03-22T01:50:00.979Z,0
2017-03-22T01:50:41.561Z,0
2017-03-22T01:51:22.139Z,0
2017-03-22T01:52:02.732Z,0
2017-03-22T01:52:43.312Z,0
2017-03-22T01:53:23.893Z,0
2017-03-22T01:54:04.467Z,0
2017-03-22T01:54:45.054Z,0
2017-03-22T01:55:25.643Z,0
2017-03-22T01:56:06.225Z,0
2017-03-22T01:56:46.814Z,0
2017-03-22T01:57:27.394Z,0
2017-03-22T01:59:45.334Z,0
2017-03-22T02:00:25.925Z,0
2017-03-22T02:01:21.151Z,0
2017-03-22T02:02:01.726Z,0
2017-03-22T02:02:42.310Z,0
2017-03-22T02:03:22.892Z,0
2017-03-22T02:04:03.470Z,0
2017-03-22T02:04:44.047Z,0
2017-03-22T02:05:24.629Z,0
2017-03-22T02:06:05.212Z,0
2017-03-22T02:06:45.792Z,0
2017-03-22T02:07:26.375Z,0
2017-03-22T02:08:06.946Z,0
2017-03-22T02:08:47.533Z,0
2017-03-22T02:09:28.118Z,0
2017-03-22T02:10:08.707Z,0
2017-03-22T02:10:49.280Z,0
2017-03-22T02:11:29.850Z,0
2017-03-22T02:12:10.435Z,0
2017-03-22T02:12:51.026Z,0
2017-03-22T02:13:31.607Z,0
2017-03-22T02:14:12.184Z,0
2017-03-22T02:14:52.771Z,0
2017-03-22T02:15:33.346Z,0
2017-03-22T02:16:13.918Z,0
2017-03-22T02:16:54.503Z,0
2017-03-22T02:17:35.083Z,0
2017-03-22T02:18:16.667Z,0
2017-03-22T02:18:56.565Z,0
2017-03-22T02:19:37.146Z,0
2017-03-22T02:20:17.723Z,0
2017-03-22T02:21:13.256Z,0
2017-03-22T02:21:53.837Z,0
2017-03-22T02:22:34.413Z,0
2017-03-22T02:23:14.996Z,0
2017-03-22T02:23:55.567Z,0
2017-03-22T02:24:36.142Z,0
2017-03-22T02:25:16.719Z,0
2017-03-22T02:25:57.299Z,0
2017-03-22T02:26:37.876Z,0
2017-03-22T02:27:18.462Z,0
2017-03-22T02:27:59.041Z,0
2017-03-22T02:28:39.628Z,0
2017-03-22T02:29:20.211Z,0
2017-03-22T02:30:00.779Z,0
2017-03-22T02:30:41.367Z,0
2017-03-22T02:31:21.948Z,0
2017-03-22T02:32:02.529Z,0
2017-03-22T02:32:43.106Z,0
2017-03-22T02:33:23.684Z,0
2017-03-22T02:34:04.268Z,0
2017-03-22T02:34:44.847Z,0
2017-03-22T02:35:25.428Z,0
2017-03-22T02:36:06.005Z,0
2017-03-22T02:36:46.580Z,0
2017-03-22T02:37:27.160Z,0
2017-03-22T02:38:07.741Z,0
2017-03-22T02:38:48.323Z,0
2017-03-22T02:39:28.889Z,0
2017-03-22T02:40:09.471Z,0
2017-03-22T02:40:50.060Z,0
2017-03-22T02:41:30.625Z,0
2017-03-22T02:42:11.206Z,0
2017-03-22T02:42:51.783Z,0
2017-03-22T02:43:32.367Z,0
2017-03-22T02:44:12.956Z,0
2017-03-22T02:44:53.537Z,0
2017-03-22T02:45:34.116Z,0
2017-03-22T02:46:14.697Z,0
2017-03-22T02:46:55.278Z,0
2017-03-22T02:47:35.855Z,0
2017-03-22T02:48:16.441Z,0
2017-03-22T02:48:57.024Z,0
2017-03-22T02:49:37.608Z,0
2017-03-22T02:50:18.189Z,0
2017-03-22T02:50:58.770Z,0
2017-03-22T02:51:39.358Z,0
2017-03-22T02:52:19.945Z,0
2017-03-22T02:53:00.522Z,0
2017-03-22T02:53:55.766Z,0
2017-03-22T02:54:36.335Z,0
2017-03-22T02:55:16.912Z,0
2017-03-22T02:55:57.490Z,0
2017-03-22T02:56:38.070Z,0
2017-03-22T02:57:18.651Z,0
2017-03-22T02:57:59.226Z,0
2017-03-22T03:00:32.420Z,0
2017-03-22T03:01:13.011Z,0
2017-03-22T03:01:53.589Z,0
2017-03-22T03:02:34.175Z,0
2017-03-22T03:03:14.752Z,0
2017-03-22T03:03:55.331Z,0
2017-03-22T03:06:35.106Z,0
2017-03-22T03:07:15.687Z,0
2017-03-22T03:07:56.266Z,0
2017-03-22T03:08:36.842Z,0
2017-03-22T03:09:17.422Z,0
2017-03-22T03:09:58.004Z,0
2017-03-22T03:10:53.287Z,0
2017-03-22T03:11:33.865Z,0
2017-03-22T03:12:14.473Z,0
2017-03-22T03:12:55.023Z,0
2017-03-22T03:13:35.603Z,0
2017-03-22T03:14:16.186Z,0
2017-03-22T03:14:56.756Z,0
2017-03-22T03:15:37.339Z,0
2017-03-22T03:16:17.907Z,0
2017-03-22T03:16:58.481Z,0
2017-03-22T03:17:39.070Z,0
2017-03-22T03:18:19.657Z,0
2017-03-22T03:19:00.232Z,0
2017-03-22T03:19:40.806Z,0
2017-03-22T03:20:21.391Z,0
2017-03-22T03:21:01.971Z,0
2017-03-22T03:21:42.553Z,0
2017-03-22T03:22:23.135Z,0
2017-03-22T03:23:03.704Z,0
2017-03-22T03:23:44.267Z,0
2017-03-22T03:24:24.851Z,0
2017-03-22T03:25:05.434Z,0
2017-03-22T03:25:46.015Z,0
2017-03-22T03:26:26.593Z,0
2017-03-22T03:27:07.174Z,0
2017-03-22T03:27:47.759Z,0
2017-03-22T03:28:28.342Z,0
2017-03-22T03:29:08.927Z,0
2017-03-22T03:29:49.587Z,0
2017-03-22T03:30:30.160Z,0
2017-03-22T03:31:10.740Z,0
2017-03-22T03:31:51.322Z,0
2017-03-22T03:32:31.902Z,0
2017-03-22T03:33:12.493Z,0
2017-03-22T03:33:53.067Z,0
2017-03-22T03:34:33.657Z,0
2017-03-22T03:35:14.234Z,0
2017-03-22T03:35:54.811Z,0
2017-03-22T03:36:35.390Z,0
2017-03-22T03:37:15.970Z,0
2017-03-22T03:37:56.544Z,0
2017-03-22T03:38:37.128Z,0
2017-03-22T03:39:17.701Z,0
2017-03-22T03:39:58.280Z,0
2017-03-22T03:40:38.859Z,0
2017-03-22T03:41:19.442Z,0
2017-03-22T03:42:00.029Z,0
2017-03-22T03:42:40.602Z,0
2017-03-22T03:43:21.184Z,0
2017-03-22T03:44:01.764Z,0
2017-03-22T03:44:42.347Z,0
2017-03-22T03:45:22.934Z,0
2017-03-22T03:46:03.518Z,0
2017-03-22T03:46:44.102Z,0
2017-03-22T03:47:24.682Z,0
2017-03-22T03:48:05.256Z,0
2017-03-22T03:48:45.841Z,0
2017-03-22T03:49:26.428Z,0
2017-03-22T03:50:07.003Z,0
2017-03-22T03:50:47.581Z,0
2017-03-22T03:51:28.152Z,0
2017-03-22T03:52:08.732Z,0
2017-03-22T03:52:49.308Z,0
2017-03-22T03:53:29.880Z,0
2017-03-22T03:54:10.465Z,0
2017-03-22T03:54:51.039Z,0
2017-03-22T03:55:31.625Z,0
2017-03-22T03:56:12.214Z,0
2017-03-22T03:56:52.801Z,0
2017-03-22T03:57:33.366Z,0
2017-03-22T03:58:13.945Z,0
2017-03-22T03:58:54.526Z,0
2017-03-22T03:59:35.343Z,0
2017-03-22T04:00:15.919Z,0
2017-03-22T04:00:56.495Z,0
2017-03-22T04:01:37.070Z,0
2017-03-22T04:02:17.671Z,0
2017-03-22T04:02:58.254Z,0
2017-03-22T04:03:38.835Z,0
2017-03-22T04:04:19.420Z,0
2017-03-22T04:05:00.010Z,0
2017-03-22T04:05:40.589Z,0
2017-03-22T04:06:21.164Z,0
2017-03-22T04:07:01.745Z,0
2017-03-22T04:07:42.413Z,0
2017-03-22T04:08:23.014Z,0
2017-03-22T04:09:03.602Z,0
2017-03-22T04:09:59.086Z,0
2017-03-22T04:10:39.658Z,0
2017-03-22T04:11:20.251Z,0
2017-03-22T04:12:00.832Z,0
2017-03-22T04:12:41.397Z,0
2017-03-22T04:13:21.978Z,0
2017-03-22T04:14:02.551Z,0
2017-03-22T04:14:43.129Z,0
2017-03-22T04:15:23.708Z,0
2017-03-22T04:16:04.296Z,0
2017-03-22T04:16:44.863Z,0
2017-03-22T04:17:25.446Z,0
2017-03-22T04:18:06.022Z,0
2017-03-22T04:18:46.595Z,0
2017-03-22T04:19:27.182Z,0
2017-03-22T04:20:07.768Z,0
2017-03-22T04:20:48.351Z,0
2017-03-22T04:21:28.934Z,0
2017-03-22T04:22:09.650Z,0
2017-03-22T04:22:50.546Z,0
2017-03-22T04:23:31.123Z,0
2017-03-22T04:24:11.867Z,0
2017-03-22T04:24:52.548Z,0
2017-03-22T04:25:33.125Z,0
2017-03-22T04:26:13.750Z,0
2017-03-22T04:26:54.338Z,0
2017-03-22T04:27:34.905Z,0
2017-03-22T04:28:15.496Z,0
2017-03-22T04:28:56.071Z,0
2017-03-22T04:29:36.900Z,0
2017-03-22T04:30:17.654Z,0
2017-03-22T04:30:58.468Z,0
2017-03-22T04:31:39.234Z,0
2017-03-22T04:32:19.795Z,0
2017-03-22T04:33:00.735Z,0
2017-03-22T04:33:41.662Z,0
2017-03-22T04:34:22.347Z,0
2017-03-22T04:35:03.396Z,0
2017-03-22T04:35:44.437Z,0
2017-03-22T04:36:25.599Z,0
2017-03-22T04:37:06.180Z,0
2017-03-22T04:37:46.931Z,0
2017-03-22T04:38:27.831Z,0
2017-03-22T04:39:08.788Z,0
2017-03-22T04:39:49.712Z,0
2017-03-22T04:40:30.282Z,0
2017-03-22T04:43:20.473Z,0
2017-03-22T04:44:01.445Z,0
2017-03-22T04:44:42.407Z,0
2017-03-22T04:45:23.114Z,0
2017-03-22T04:46:03.687Z,0
2017-03-22T04:46:44.271Z,0
2017-03-22T04:47:24.854Z,0
2017-03-22T04:48:05.427Z,0
2017-03-22T04:48:46.006Z,0
2017-03-22T04:49:26.595Z,0
2017-03-22T04:50:07.194Z,0
2017-03-22T04:50:47.746Z,0
2017-03-22T04:51:28.326Z,0
2017-03-22T04:52:08.909Z,0
2017-03-22T04:52:49.567Z,0
2017-03-22T04:53:34.823Z,0
2017-03-22T04:54:15.387Z,0
2017-03-22T04:54:55.982Z,0
2017-03-22T04:55:36.543Z,0
2017-03-22T04:56:17.123Z,0
2017-03-22T04:56:57.715Z,0
2017-03-22T04:57:38.299Z,0
2017-03-22T04:58:18.881Z,0
2017-03-22T04:58:59.459Z,0
2017-03-22T04:59:40.015Z,0
2017-03-22T05:00:20.600Z,0
2017-03-22T05:01:01.191Z,0
2017-03-22T05:01:41.760Z,0
2017-03-22T05:02:22.338Z,0
2017-03-22T05:03:02.921Z,0
2017-03-22T05:03:43.494Z,0
2017-03-22T05:04:24.075Z,0
2017-03-22T05:05:04.650Z,0
2017-03-22T05:05:45.236Z,0
2017-03-22T05:06:25.815Z,0
2017-03-22T05:07:06.394Z,0
2017-03-22T05:07:46.973Z,0
2017-03-22T05:08:27.556Z,0
2017-03-22T05:09:08.125Z,0
2017-03-22T05:09:48.717Z,0
2017-03-22T05:10:29.280Z,0
2017-03-22T05:11:09.867Z,0
2017-03-22T05:11:50.439Z,0
2017-03-22T05:12:31.020Z,0
2017-03-22T05:13:11.604Z,0
2017-03-22T05:13:52.178Z,0
2017-03-22T05:14:32.761Z,0
2017-03-22T05:15:13.341Z,0
2017-03-22T05:15:53.928Z,0
2017-03-22T05:16:34.507Z,0
2017-03-22T05:17:15.088Z,0
2017-03-22T05:17:55.672Z,0
2017-03-22T05:18:36.247Z,0
2017-03-22T05:19:16.795Z,0
2017-03-22T05:19:57.377Z,0
2017-03-22T05:20:37.952Z,0
2017-03-22T05:21:18.529Z,0
2017-03-22T05:21:59.119Z,0
2017-03-22T05:24:37.406Z,0
2017-03-22T05:25:17.992Z,0
2017-03-22T05:25:58.568Z,0
2017-03-22T05:26:39.149Z,0
2017-03-22T05:27:19.684Z,0
2017-03-22T05:28:00.220Z,0
2017-03-22T05:28:40.751Z,0
2017-03-22T05:29:21.339Z,0
2017-03-22T05:30:01.872Z,0
2017-03-22T05:30:42.449Z,0
2017-03-22T05:31:23.030Z,0
2017-03-22T05:32:03.604Z,5
2017-03-22T05:32:44.162Z,5
2017-03-22T05:33:24.745Z,5
2017-03-22T05:34:05.320Z,5
2017-03-22T05:34:45.907Z,5
2017-03-22T05:35:26.491Z,5
2017-03-22T05:36:07.072Z,5
2017-03-22T05:36:47.653Z,5
2017-03-22T05:37:28.236Z,5
2017-03-22T05:38:08.820Z,5
2017-03-22T05:38:49.346Z,5
2017-03-22T05:39:29.934Z,5
2017-03-22T05:40:10.512Z,5
2017-03-22T05:40:51.039Z,5
2017-03-22T05:41:31.576Z,10
2017-03-22T05:42:12.155Z,10
2017-03-22T05:42:52.743Z,10
2017-03-22T05:43:33.319Z,10
2017-03-22T05:44:13.890Z,10
2017-03-22T05:44:54.438Z,10
2017-03-22T05:45:35.011Z,10
2017-03-22T05:46:15.593Z,10
2017-03-22T05:48:33.520Z,15
2017-03-22T05:49:14.102Z,15
2017-03-22T05:49:54.677Z,15
2017-03-22T05:50:35.256Z,20
2017-03-22T05:51:15.832Z,20
2017-03-22T05:51:56.414Z,20
2017-03-22T05:52:36.996Z,25
2017-03-22T05:53:17.574Z,25
2017-03-22T05:53:58.139Z,25
2017-03-22T05:54:38.728Z,25
2017-03-22T05:55:19.313Z,25
2017-03-22T05:55:59.903Z,25
2017-03-22T05:56:40.470Z,25
2017-03-22T05:57:21.044Z,25
2017-03-22T05:58:01.628Z,25
2017-03-22T05:58:42.213Z,25
2017-03-22T05:59:22.789Z,25
2017-03-22T06:00:03.367Z,25
2017-03-22T06:00:43.947Z,25
2017-03-22T06:01:24.518Z,30
2017-03-22T06:02:05.103Z,30
2017-03-22T06:02:45.676Z,30
2017-03-22T06:03:26.249Z,30
2017-03-22T06:04:06.823Z,30
2017-03-22T06:04:47.403Z,30
2017-03-22T06:05:27.988Z,30
2017-03-22T06:06:08.566Z,30
2017-03-22T06:06:49.126Z,30
2017-03-22T06:07:29.694Z,30
2017-03-22T06:08:10.282Z,30
2017-03-22T06:08:50.855Z,30
2017-03-22T06:09:31.430Z,30
2017-03-22T06:10:12.017Z,30
2017-03-22T06:10:52.591Z,30
2017-03-22T06:11:33.177Z,35
2017-03-22T06:12:13.759Z,35
2017-03-22T06:12:54.326Z,40
2017-03-22T06:13:34.910Z,45
2017-03-22T06:14:15.474Z,50
2017-03-22T06:14:56.063Z,55
2017-03-22T06:15:36.641Z,60
2017-03-22T06:16:17.217Z,60
2017-03-22T06:16:57.816Z,65
2017-03-22T06:17:38.361Z,65
2017-03-22T06:18:18.929Z,65
2017-03-22T06:19:14.203Z,65
2017-03-22T06:19:54.774Z,65
2017-03-22T06:20:35.342Z,60
2017-03-22T06:21:15.917Z,60
2017-03-22T06:21:56.491Z,55
2017-03-22T06:22:37.059Z,50
2017-03-22T06:23:17.637Z,50
2017-03-22T06:23:58.223Z,45
2017-03-22T06:24:38.800Z,45
2017-03-22T06:25:19.374Z,45
2017-03-22T06:25:59.952Z,40
2017-03-22T06:26:40.533Z,40
2017-03-22T06:28:58.455Z,45
2017-03-22T06:29:39.039Z,40
2017-03-22T06:30:19.628Z,40
2017-03-22T06:31:00.199Z,45
2017-03-22T06:31:40.787Z,45
2017-03-22T06:32:21.350Z,45
2017-03-22T06:34:54.542Z,55
2017-03-22T06:35:35.132Z,55
2017-03-22T06:36:15.695Z,60
2017-03-22T06:36:56.269Z,60
2017-03-22T06:37:36.846Z,60
2017-03-22T06:38:17.422Z,60
2017-03-22T06:38:57.987Z,65
2017-03-22T06:39:38.568Z,65
2017-03-22T06:40:19.150Z,70
2017-03-22T06:40:59.731Z,70
2017-03-22T06:41:40.309Z,70
2017-03-22T06:42:20.886Z,75
2017-03-22T06:43:01.459Z,70
2017-03-22T06:43:42.043Z,70
2017-03-22T06:44:22.607Z,70
2017-03-22T06:45:03.186Z,65
2017-03-22T06:45:43.776Z,60
2017-03-22T06:46:24.348Z,60
2017-03-22T06:47:04.935Z,60
2017-03-22T06:47:45.511Z,60
2017-03-22T06:48:26.087Z,55
2017-03-22T06:49:06.677Z,55
2017-03-22T06:49:47.240Z,55
2017-03-22T06:50:27.817Z,55
2017-03-22T06:51:08.388Z,55
2017-03-22T06:51:48.972Z,55
2017-03-22T06:52:44.214Z,55
2017-03-22T06:53:24.798Z,55
2017-03-22T06:54:05.379Z,55
2017-03-22T06:54:45.962Z,50
2017-03-22T06:55:26.539Z,50
2017-03-22T06:56:07.123Z,50
2017-03-22T06:56:47.688Z,50
2017-03-22T06:57:28.266Z,50
2017-03-22T06:58:08.852Z,50
2017-03-22T06:58:49.422Z,50
2017-03-22T06:59:30.007Z,50
2017-03-22T07:00:10.599Z,50
2017-03-22T07:00:51.177Z,50
2017-03-22T07:03:29.468Z,60
2017-03-22T07:04:10.041Z,60
2017-03-22T07:04:50.621Z,60
2017-03-22T07:05:31.193Z,60
2017-03-22T07:06:11.779Z,55
2017-03-22T07:06:52.359Z,60
2017-03-22T07:07:32.930Z,55
2017-03-22T07:08:13.507Z,50
2017-03-22T07:08:54.094Z,50
2017-03-22T07:09:34.672Z,50
2017-03-22T07:10:15.255Z,50
2017-03-22T07:10:55.836Z,50
2017-03-22T07:11:36.416Z,50
2017-03-22T07:12:16.996Z,50
2017-03-22T07:12:57.564Z,50
2017-03-22T07:13:38.152Z,45
2017-03-22T07:14:18.732Z,50
2017-03-22T07:14:59.313Z,50
2017-03-22T07:15:39.891Z,50
2017-03-22T07:16:20.472Z,50
2017-03-22T07:17:01.051Z,55
2017-03-22T07:17:41.634Z,50
2017-03-22T07:18:22.226Z,50
2017-03-22T07:19:02.806Z,50
2017-03-22T07:19:43.380Z,55
2017-03-22T07:20:23.964Z,55
2017-03-22T07:21:04.545Z,55
2017-03-22T07:21:45.132Z,55
2017-03-22T07:22:25.711Z,50
2017-03-22T07:23:06.294Z,50
2017-03-22T07:23:46.871Z,50
2017-03-22T07:24:27.450Z,50
2017-03-22T07:25:08.029Z,55
2017-03-22T07:25:48.608Z,55
2017-03-22T07:26:29.196Z,55
2017-03-22T07:27:09.777Z,60
2017-03-22T07:27:50.358Z,60
2017-03-22T07:28:30.933Z,65
2017-03-22T07:29:11.523Z,65
2017-03-22T07:29:52.105Z,65
2017-03-22T07:30:32.683Z,70
2017-03-22T07:31:27.894Z,70
2017-03-22T07:32:08.472Z,75
2017-03-22T07:32:49.053Z,75
2017-03-22T07:33:29.630Z,75
2017-03-22T07:34:10.210Z,80
2017-03-22T07:34:50.780Z,80
2017-03-22T07:35:31.358Z,80
2017-03-22T07:36:11.940Z,90
2017-03-22T07:36:52.526Z,95
2017-03-22T07:37:33.113Z,95
2017-03-22T07:38:13.696Z,100
2017-03-22T07:38:54.279Z,105
2017-03-22T07:39:34.859Z,110
2017-03-22T07:40:15.440Z,120
2017-03-22T07:40:56.018Z,120
2017-03-22T07:41:51.128Z,120
2017-03-22T07:42:31.711Z,120
2017-03-22T07:43:12.288Z,120
2017-03-22T07:43:52.856Z,120
2017-03-22T07:44:33.438Z,115
2017-03-22T07:45:14.017Z,115
2017-03-22T07:45:54.599Z,115
2017-03-22T07:46:35.168Z,110
2017-03-22T07:47:15.751Z,110
2017-03-22T07:47:56.334Z,110
2017-03-22T07:48:36.913Z,110
2017-03-22T07:49:17.500Z,110
2017-03-22T07:49:58.068Z,115
2017-03-22T07:50:38.641Z,115
2017-03-22T07:51:19.230Z,115
2017-03-22T07:51:59.809Z,115
2017-03-22T07:52:40.383Z,120
2017-03-22T07:55:13.570Z,120
2017-03-22T07:55:54.150Z,120
2017-03-22T07:56:34.734Z,125
2017-03-22T07:57:15.301Z,125
2017-03-22T07:57:55.882Z,130
2017-03-22T07:58:36.454Z,130
2017-03-22T07:59:17.033Z,130
2017-03-22T07:59:57.613Z,135
2017-03-22T08:00:38.194Z,140
2017-03-22T08:01:18.775Z,150
2017-03-22T08:01:59.356Z,155
2017-03-22T08:02:39.930Z,155
2017-03-22T08:03:20.517Z,155
2017-03-22T08:04:01.089Z,160
2017-03-22T08:04:41.673Z,160
2017-03-22T08:05:22.251Z,155
2017-03-22T08:06:02.831Z,145
2017-03-22T08:06:43.407Z,135
2017-03-22T08:07:23.972Z,125
2017-03-22T08:08:04.550Z,125
2017-03-22T08:08:45.125Z,125
2017-03-22T08:09:25.704Z,130
2017-03-22T08:10:06.289Z,130
2017-03-22T08:10:46.864Z,130
2017-03-22T08:11:27.452Z,130
2017-03-22T08:12:08.035Z,135
2017-03-22T08:12:48.620Z,135
2017-03-22T08:13:29.198Z,135
2017-03-22T08:14:09.779Z,140
2017-03-22T08:14:50.358Z,140
2017-03-22T08:15:30.939Z,135
2017-03-22T08:16:11.521Z,135
2017-03-22T08:16:52.100Z,145
2017-03-22T08:17:32.672Z,150
2017-03-22T08:18:13.263Z,150
2017-03-22T08:18:53.822Z,155
2017-03-22T08:19:34.405Z,155
2017-03-22T08:20:14.985Z,160
2017-03-22T08:20:55.573Z,165
2017-03-22T08:21:36.141Z,160
2017-03-22T08:22:16.719Z,160
2017-03-22T08:22:57.302Z,160
2017-03-22T08:23:37.883Z,165
2017-03-22T08:24:18.463Z,160
2017-03-22T08:24:59.022Z,160
2017-03-22T08:25:39.597Z,155
2017-03-22T08:26:20.198Z,150
2017-03-22T08:27:00.769Z,150
2017-03-22T08:27:41.347Z,150
2017-03-22T08:28:21.926Z,155
2017-03-22T08:29:02.510Z,155
2017-03-22T08:29:43.081Z,155
2017-03-22T08:30:23.660Z,150
2017-03-22T08:31:04.240Z,150
2017-03-22T08:31:44.825Z,150
2017-03-22T08:32:25.412Z,155
2017-03-22T08:33:05.995Z,165
2017-03-22T08:33:46.599Z,170
2017-03-22T08:34:27.163Z,170
2017-03-22T08:35:07.740Z,175
2017-03-22T08:35:48.325Z,175
2017-03-22T08:36:28.911Z,175
2017-03-22T08:37:09.488Z,180
2017-03-22T08:37:50.075Z,185
2017-03-22T08:38:30.656Z,180
2017-03-22T08:40:48.601Z,185
2017-03-22T08:41:29.187Z,185
2017-03-22T08:42:09.775Z,190
2017-03-22T08:42:50.351Z,200
2017-03-22T08:43:30.933Z,200
2017-03-22T08:44:11.504Z,200
2017-03-22T08:44:52.090Z,200
2017-03-22T08:45:32.671Z,200
2017-03-22T08:46:13.246Z,200
2017-03-22T08:48:51.542Z,205
2017-03-22T08:49:32.125Z,205
2017-03-22T08:50:12.714Z,205
2017-03-22T08:50:53.291Z,205
2017-03-22T08:51:33.873Z,205
2017-03-22T08:52:14.457Z,210
2017-03-22T08:52:55.030Z,215
2017-03-22T08:53:35.602Z,225
2017-03-22T08:54:16.182Z,225
2017-03-22T08:54:56.783Z,230
2017-03-22T08:55:37.351Z,235
2017-03-22T08:56:17.934Z,230
2017-03-22T08:56:58.517Z,230
2017-03-22T08:57:39.101Z,235
2017-03-22T08:58:19.679Z,230
2017-03-22T08:59:00.264Z,230
2017-03-22T08:59:40.832Z,240
2017-03-22T09:00:21.403Z,235
2017-03-22T09:01:01.982Z,220
2017-03-22T09:01:42.562Z,215
2017-03-22T09:02:23.144Z,215
2017-03-22T09:03:03.720Z,225
2017-03-22T09:03:44.298Z,225
2017-03-22T09:04:24.878Z,220
2017-03-22T09:05:05.457Z,220
2017-03-22T09:05:46.050Z,215
2017-03-22T09:06:26.635Z,215
2017-03-22T09:07:07.218Z,225
2017-03-22T09:07:47.782Z,235
2017-03-22T09:08:28.362Z,235
2017-03-22T09:09:08.957Z,230
2017-03-22T09:09:49.535Z,215
2017-03-22T09:10:30.115Z,210
2017-03-22T09:11:10.702Z,220
2017-03-22T09:13:28.643Z,205
2017-03-22T09:14:09.225Z,205
2017-03-22T09:14:49.812Z,205
2017-03-22T09:15:30.385Z,200
2017-03-22T09:16:10.964Z,195
2017-03-22T09:16:51.543Z,205
2017-03-22T09:17:32.119Z,210
2017-03-22T09:18:12.701Z,220
2017-03-22T09:18:53.279Z,230
2017-03-22T09:19:33.862Z,225
2017-03-22T09:20:14.435Z,220
2017-03-22T09:22:47.642Z,225
2017-03-22T09:23:28.221Z,225
2017-03-22T09:24:08.774Z,235
2017-03-22T09:24:49.368Z,245
2017-03-22T09:25:29.937Z,250
2017-03-22T09:26:10.523Z,240
2017-03-22T09:26:51.111Z,230
2017-03-22T09:27:31.694Z,230
2017-03-22T09:28:26.946Z,225
2017-03-22T09:29:07.540Z,230
2017-03-22T09:29:48.110Z,230
2017-03-22T09:30:28.687Z,230
2017-03-22T09:31:09.278Z,225
2017-03-22T09:31:49.850Z,220
2017-03-22T09:32:30.431Z,215
2017-03-22T09:33:11.017Z,210
2017-03-22T09:33:51.598Z,205
2017-03-22T09:34:32.182Z,205
2017-03-22T09:35:12.765Z,200
2017-03-22T09:35:53.339Z,200
2017-03-22T09:36:33.923Z,195
2017-03-22T09:37:14.511Z,190
2017-03-22T09:37:55.093Z,185
2017-03-22T09:38:35.676Z,180
2017-03-22T09:39:16.257Z,175
2017-03-22T09:39:56.831Z,175
2017-03-22T09:40:37.419Z,165
2017-03-22T09:41:18.000Z,160
2017-03-22T09:41:58.596Z,155
2017-03-22T09:42:39.166Z,150
2017-03-22T09:43:19.744Z,150
2017-03-22T09:45:37.680Z,135
2017-03-22T09:46:18.261Z,130
2017-03-22T09:46:58.840Z,125
2017-03-22T09:47:39.417Z,125
2017-03-22T09:48:20.004Z,125
2017-03-22T09:49:00.587Z,125
2017-03-22T09:49:41.166Z,130
2017-03-22T09:50:21.760Z,135
2017-03-22T09:51:02.330Z,140
2017-03-22T09:51:42.902Z,150
2017-03-22T09:52:23.482Z,160
2017-03-22T09:54:56.655Z,180
2017-03-22T09:55:37.242Z,190
2017-03-22T09:56:17.819Z,195
2017-03-22T09:56:58.393Z,205
2017-03-22T09:57:38.951Z,220
2017-03-22T09:58:19.533Z,235
2017-03-22T09:59:00.108Z,245
2017-03-22T09:59:40.688Z,260
2017-03-22T10:00:21.256Z,270
2017-03-22T10:01:01.833Z,285
2017-03-22T10:01:42.410Z,305
2017-03-22T10:02:22.986Z,310
2017-03-22T10:03:03.562Z,295
2017-03-22T10:03:44.148Z,290
2017-03-22T10:04:24.721Z,305
2017-03-22T10:05:05.294Z,320
2017-03-22T10:05:45.869Z,320
2017-03-22T10:06:26.443Z,295
2017-03-22T10:07:07.021Z,270
2017-03-22T10:07:47.594Z,250
2017-03-22T10:08:28.179Z,235
2017-03-22T10:09:08.749Z,225
2017-03-22T10:09:49.336Z,215
2017-03-22T10:10:29.921Z,215
2017-03-22T10:11:10.507Z,210
2017-03-22T10:11:51.087Z,210
2017-03-22T10:12:31.648Z,210
2017-03-22T10:13:12.214Z,210
2017-03-22T10:13:52.796Z,210
2017-03-22T10:14:33.379Z,210
2017-03-22T10:15:13.970Z,210
2017-03-22T10:15:54.549Z,200
2017-03-22T10:16:35.128Z,195
2017-03-22T10:17:15.709Z,195
2017-03-22T10:17:56.291Z,200
2017-03-22T10:18:36.879Z,205
2017-03-22T10:19:17.467Z,210
2017-03-22T10:19:58.044Z,215
2017-03-22T10:20:38.623Z,220
2017-03-22T10:21:34.097Z,240
2017-03-22T10:22:14.675Z,245
2017-03-22T10:22:55.256Z,245
2017-03-22T10:23:35.827Z,245